createdAt,value
2022-11-22T00:00:55.078Z,-0.44
2022-11-22T00:03:21.909Z,-0.53
2022-11-22T00:05:48.306Z,-0.60
2022-11-22T00:08:14.781Z,-0.64
2022-11-22T00:10:41.222Z,-0.67
2022-11-22T00:13:07.960Z,-0.76
2022-11-22T00:15:34.434Z,-0.84
2022-11-22T00:18:01.120Z,-0.93
2022-11-22T00:20:27.779Z,-1.02
2022-11-22T00:22:56.353Z,-1.12
2022-11-22T00:25:22.904Z,-1.17
2022-11-22T00:27:49.338Z,-1.21
2022-11-22T00:30:16.286Z,-1.28
2022-11-22T00:32:42.824Z,-1.37
2022-11-22T00:35:10.908Z,-1.47
2022-11-22T00:37:37.746Z,-1.54
2022-11-22T00:40:06.256Z,-1.61
2022-11-22T00:42:32.844Z,-1.66
2022-11-22T00:44:59.274Z,-1.71
2022-11-22T00:47:25.737Z,-1.70
2022-11-22T00:49:52.342Z,-1.66
2022-11-22T00:52:18.742Z,-1.69
2022-11-22T00:54:48.767Z,-27.86
2022-11-22T00:57:17.985Z,-1.73
2022-11-22T00:59:44.680Z,-1.67
2022-11-22T01:02:11.323Z,-1.61
2022-11-22T01:04:37.857Z,-1.63
2022-11-22T01:07:04.335Z,-1.67
2022-11-22T01:09:31.352Z,-1.71
2022-11-22T01:11:58.326Z,-1.75
2022-11-22T01:14:24.778Z,-1.77
2022-11-22T01:16:51.266Z,-1.83
2022-11-22T01:19:17.792Z,-1.89
2022-11-22T01:21:44.335Z,-1.95
2022-11-22T01:24:10.785Z,-1.95
2022-11-22T01:26:37.306Z,-1.98
2022-11-22T01:29:04.801Z,-2.00
2022-11-22T01:31:31.327Z,-1.96
2022-11-22T01:33:58.963Z,-1.93
2022-11-22T01:36:26.651Z,-1.92
2022-11-22T01:38:53.077Z,-1.93
2022-11-22T01:41:19.839Z,-1.93
2022-11-22T01:43:46.281Z,-1.94
2022-11-22T01:46:26.072Z,-1.95
2022-11-22T01:48:55.330Z,-1.97
2022-11-22T01:51:32.602Z,-2.03
2022-11-22T01:54:03.008Z,-2.05
2022-11-22T01:56:30.703Z,-2.04
2022-11-22T01:59:02.902Z,-2.01
2022-11-22T02:01:30.260Z,-1.95
2022-11-22T02:04:00.563Z,-1.94
2022-11-22T02:06:58.018Z,-1.94
2022-11-22T02:09:24.873Z,-1.90
2022-11-22T02:11:54.577Z,-1.86
2022-11-22T02:14:27.382Z,-1.84
2022-11-22T02:16:54.509Z,-1.81
2022-11-22T02:19:39.422Z,-1.79
2022-11-22T02:22:46.147Z,-1.76
2022-11-22T02:25:27.972Z,-1.71
2022-11-22T02:27:54.463Z,-1.67
2022-11-22T02:30:21.001Z,-1.64
2022-11-22T02:32:47.885Z,-1.62
2022-11-22T02:35:25.974Z,-1.58
2022-11-22T02:37:58.984Z,-1.55
2022-11-22T02:40:27.661Z,-1.50
2022-11-22T02:43:04.583Z,-1.46
2022-11-22T02:45:31.202Z,-1.39
2022-11-22T02:48:06.339Z,-1.35
2022-11-22T02:50:32.776Z,-1.33
2022-11-22T02:52:59.218Z,-1.33
2022-11-22T02:55:25.762Z,-1.31
2022-11-22T02:57:52.190Z,-1.31
2022-11-22T03:00:19.211Z,-1.34
2022-11-22T03:02:45.679Z,-1.38
2022-11-22T03:05:12.232Z,-1.40
2022-11-22T03:07:38.704Z,-1.43
2022-11-22T03:10:05.917Z,-1.46
2022-11-22T03:12:32.423Z,-1.49
2022-11-22T03:14:58.810Z,-1.48
2022-11-22T03:17:25.265Z,-1.46
2022-11-22T03:19:51.769Z,-1.44
2022-11-22T03:22:18.215Z,-1.41
2022-11-22T03:24:44.717Z,-1.39
2022-11-22T03:27:11.182Z,-1.39
2022-11-22T03:29:37.718Z,-1.37
2022-11-22T03:32:04.151Z,-1.34
2022-11-22T03:34:30.521Z,-1.36
2022-11-22T03:36:56.959Z,-1.41
2022-11-22T03:39:24.091Z,-1.41
2022-11-22T03:41:50.521Z,-1.42
2022-11-22T03:44:17.056Z,-1.42
2022-11-22T03:46:43.592Z,-1.44
2022-11-22T03:49:11.057Z,-1.43
2022-11-22T03:51:37.591Z,-1.44
2022-11-22T03:54:04.228Z,-1.46
2022-11-22T03:56:30.866Z,-1.46
2022-11-22T03:58:57.296Z,-1.53
2022-11-22T04:01:23.920Z,-1.62
2022-11-22T04:03:50.583Z,-1.63
2022-11-22T04:06:17.015Z,-1.63
2022-11-22T04:08:43.638Z,-1.62
2022-11-22T04:11:10.156Z,-1.63
2022-11-22T04:13:36.578Z,-1.63
2022-11-22T04:16:03.036Z,-1.65
2022-11-22T04:18:29.495Z,-1.66
2022-11-22T04:20:55.936Z,-1.66
2022-11-22T04:23:26.221Z,-1.68
2022-11-22T04:25:56.282Z,-1.69
2022-11-22T04:28:35.213Z,-1.69
2022-11-22T04:31:11.477Z,-1.74
2022-11-22T04:33:38.013Z,-1.76
2022-11-22T04:36:07.732Z,-1.77
2022-11-22T04:38:38.437Z,-1.79
2022-11-22T04:41:04.892Z,-1.80
2022-11-22T04:43:31.326Z,-1.84
2022-11-22T04:45:57.867Z,-1.85
2022-11-22T04:48:24.294Z,-1.88
2022-11-22T04:50:50.853Z,-1.91
2022-11-22T04:53:18.710Z,-1.92
2022-11-22T04:55:47.164Z,-1.92
2022-11-22T04:58:13.934Z,-1.94
2022-11-22T05:00:40.614Z,-1.95
2022-11-22T05:03:08.030Z,-1.97
2022-11-22T05:05:36.717Z,-2.01
2022-11-22T05:08:03.928Z,-2.06
2022-11-22T05:10:30.419Z,-2.09
2022-11-22T05:12:56.961Z,-2.13
2022-11-22T05:15:23.418Z,-2.18
2022-11-22T05:17:49.843Z,-2.22
2022-11-22T05:20:16.470Z,-2.28
2022-11-22T05:22:43.009Z,-2.31
2022-11-22T05:25:09.852Z,-2.35
2022-11-22T05:27:36.592Z,-2.41
2022-11-22T05:30:04.199Z,-2.47
2022-11-22T05:32:31.919Z,-2.54
2022-11-22T05:34:58.855Z,-2.61
2022-11-22T05:37:26.213Z,-2.65
2022-11-22T05:39:52.776Z,-2.74
2022-11-22T05:42:19.320Z,-2.79
2022-11-22T05:44:45.924Z,-2.83
2022-11-22T05:47:12.881Z,-2.85
2022-11-22T05:49:39.291Z,-2.86
2022-11-22T05:52:05.955Z,-2.87
2022-11-22T05:54:32.424Z,-2.89
2022-11-22T05:56:58.968Z,-2.91
2022-11-22T05:59:25.370Z,-2.92
2022-11-22T06:01:51.993Z,-2.91
2022-11-22T06:04:18.690Z,-2.90
2022-11-22T06:06:47.114Z,-2.87
2022-11-22T06:09:13.631Z,-2.86
2022-11-22T06:11:40.026Z,-2.85
2022-11-22T06:14:09.256Z,-2.84
2022-11-22T06:16:36.004Z,-2.83
2022-11-22T06:19:02.405Z,-2.80
2022-11-22T06:21:28.875Z,-2.76
2022-11-22T06:23:56.019Z,-2.70
2022-11-22T06:26:23.921Z,-2.68
2022-11-22T06:28:51.489Z,-2.63
2022-11-22T06:31:20.777Z,-2.60
2022-11-22T06:33:47.432Z,-2.58
2022-11-22T06:36:20.069Z,-2.57
2022-11-22T06:38:47.153Z,-2.55
2022-11-22T06:41:16.530Z,-2.51
2022-11-22T06:43:48.752Z,-2.47
2022-11-22T06:46:18.297Z,-2.44
2022-11-22T06:48:45.587Z,-2.40
2022-11-22T06:51:17.060Z,-2.37
2022-11-22T06:53:47.816Z,-2.33
2022-11-22T06:56:18.031Z,-2.28
2022-11-22T06:58:45.392Z,-2.22
2022-11-22T07:01:24.671Z,-2.17
2022-11-22T07:03:52.091Z,-2.09
2022-11-22T07:06:19.367Z,-2.04
2022-11-22T07:08:46.696Z,-1.97
2022-11-22T07:11:16.600Z,-1.90
2022-11-22T07:13:43.364Z,-1.83
2022-11-22T07:16:12.303Z,-1.80
2022-11-22T07:18:39.086Z,-1.77
2022-11-22T07:21:13.511Z,-1.69
2022-11-22T07:23:42.778Z,-1.61
2022-11-22T07:26:10.202Z,-1.57
2022-11-22T07:28:37.539Z,-1.55
2022-11-22T07:31:06.656Z,-1.50
2022-11-22T07:33:33.893Z,-1.42
2022-11-22T07:36:10.283Z,-1.30
2022-11-22T07:38:37.684Z,-1.14
2022-11-22T07:41:05.614Z,-0.99
2022-11-22T07:43:32.650Z,-0.87
2022-11-22T07:46:04.191Z,-0.72
2022-11-22T07:48:30.586Z,-0.59
2022-11-22T07:50:57.312Z,-0.47
2022-11-22T07:53:23.786Z,-0.41
2022-11-22T07:55:50.196Z,-0.32
2022-11-22T07:58:16.731Z,-0.22
2022-11-22T08:00:43.141Z,-0.11
2022-11-22T08:03:09.714Z,-0.03
2022-11-22T08:05:36.157Z,0.05
2022-11-22T08:08:02.698Z,0.22
2022-11-22T08:10:29.130Z,0.56
2022-11-22T08:12:59.514Z,1.01
2022-11-22T08:15:26.819Z,1.53
2022-11-22T08:17:53.475Z,1.96
2022-11-22T08:20:20.003Z,2.32
2022-11-22T08:22:46.443Z,2.53
2022-11-22T08:25:12.865Z,2.82
2022-11-22T08:27:43.953Z,3.10
2022-11-22T08:30:11.487Z,3.34
2022-11-22T08:32:38.559Z,3.57
2022-11-22T08:35:05.915Z,3.65
2022-11-22T08:37:32.664Z,3.71
2022-11-22T08:39:59.167Z,3.55
2022-11-22T08:42:25.852Z,3.43
2022-11-22T08:44:52.296Z,3.50
2022-11-22T08:47:18.831Z,3.52
2022-11-22T08:49:45.374Z,3.59
2022-11-22T08:52:11.763Z,3.72
2022-11-22T08:54:38.658Z,3.88
2022-11-22T08:57:05.713Z,4.14
2022-11-22T08:59:32.973Z,4.32
2022-11-22T09:01:59.987Z,4.46
2022-11-22T09:04:26.578Z,4.61
2022-11-22T09:09:39.759Z,4.94
2022-11-22T09:12:09.050Z,5.15
2022-11-22T09:14:35.668Z,5.38
2022-11-22T09:17:02.078Z,5.51
2022-11-22T09:19:28.660Z,5.51
2022-11-22T09:21:55.475Z,5.59
2022-11-22T09:24:22.039Z,5.75
2022-11-22T09:26:48.683Z,5.94
2022-11-22T09:29:15.121Z,6.13
2022-11-22T09:31:41.606Z,6.26
2022-11-22T09:34:08.095Z,6.42
2022-11-22T09:36:38.220Z,6.69
2022-11-22T09:39:04.761Z,6.96
2022-11-22T09:41:49.223Z,7.13
2022-11-22T09:44:36.347Z,7.24
2022-11-22T09:47:29.346Z,7.39
2022-11-22T09:50:18.683Z,7.42
2022-11-22T09:52:59.261Z,7.35
2022-11-22T09:55:28.654Z,7.12
2022-11-22T09:58:10.023Z,6.96
2022-11-22T10:00:36.638Z,6.79
2022-11-22T10:03:33.646Z,6.73
2022-11-22T10:06:05.240Z,6.91
2022-11-22T10:08:44.148Z,7.17
2022-11-22T10:11:26.046Z,7.27
2022-11-22T10:13:57.782Z,7.33
2022-11-22T10:16:44.106Z,7.18
2022-11-22T10:19:16.376Z,6.98
2022-11-22T10:21:45.502Z,6.85
2022-11-22T10:24:15.888Z,6.90
2022-11-22T10:26:42.998Z,6.81
2022-11-22T10:29:28.813Z,6.70
2022-11-22T10:32:25.828Z,6.71
2022-11-22T10:35:16.127Z,6.71
2022-11-22T10:38:01.075Z,6.65
2022-11-22T10:40:48.228Z,6.64
2022-11-22T10:43:24.034Z,6.71
2022-11-22T10:46:01.996Z,6.85
2022-11-22T10:48:40.945Z,6.98
2022-11-22T10:51:20.703Z,7.15
2022-11-22T10:54:04.065Z,7.23
2022-11-22T10:56:38.033Z,7.32
2022-11-22T10:59:14.773Z,7.38
2022-11-22T11:02:15.474Z,7.49
2022-11-22T11:04:43.236Z,7.69
2022-11-22T11:07:16.991Z,7.82
2022-11-22T11:10:11.547Z,7.90
2022-11-22T11:13:06.033Z,8.00
2022-11-22T11:15:42.402Z,8.12
2022-11-22T11:18:17.067Z,8.22
2022-11-22T11:20:43.699Z,8.32
2022-11-22T11:23:15.161Z,8.42
2022-11-22T11:25:44.767Z,8.41
2022-11-22T11:28:22.992Z,8.39
2022-11-22T11:31:09.381Z,8.34
2022-11-22T11:33:38.491Z,8.31
2022-11-22T11:36:10.853Z,8.23
2022-11-22T11:38:43.126Z,8.15
2022-11-22T11:41:23.285Z,8.15
2022-11-22T11:43:51.678Z,8.11
2022-11-22T11:46:23.779Z,8.02
2022-11-22T11:48:52.391Z,7.92
2022-11-22T11:51:35.822Z,7.89
2022-11-22T11:54:24.261Z,7.84
2022-11-22T11:56:57.938Z,7.84
2022-11-22T11:59:31.575Z,7.83
2022-11-22T12:02:11.896Z,7.83
2022-11-22T12:04:51.478Z,7.82
2022-11-22T12:07:48.973Z,7.80
2022-11-22T12:10:34.548Z,7.76
2022-11-22T12:13:12.921Z,7.75
2022-11-22T12:15:50.407Z,7.76
2022-11-22T12:18:44.113Z,7.74
2022-11-22T12:21:35.520Z,7.68
2022-11-22T12:24:41.332Z,7.70
2022-11-22T12:26:57.687Z,7.73
2022-11-22T12:29:24.636Z,7.74
2022-11-22T12:32:04.874Z,7.73
2022-11-22T12:35:03.182Z,7.74
2022-11-22T12:37:42.021Z,7.72
2022-11-22T12:40:19.953Z,7.73
2022-11-22T12:42:46.405Z,7.78
2022-11-22T12:45:23.046Z,7.82
2022-11-22T12:47:52.218Z,7.84
2022-11-22T12:50:27.801Z,7.87
2022-11-22T12:53:05.092Z,7.87
2022-11-22T12:55:51.199Z,7.85
2022-11-22T12:58:45.301Z,7.83
2022-11-22T13:01:34.829Z,7.82
2022-11-22T13:04:15.939Z,7.80
2022-11-22T13:06:51.592Z,7.79
2022-11-22T13:09:34.721Z,7.75
2022-11-22T13:12:04.620Z,7.74
2022-11-22T13:14:39.258Z,7.65
2022-11-22T13:17:12.068Z,7.57
2022-11-22T13:19:47.269Z,7.51
2022-11-22T13:22:25.841Z,7.47
2022-11-22T13:25:11.109Z,7.46
2022-11-22T13:27:45.048Z,7.47
2022-11-22T13:30:19.451Z,7.46
2022-11-22T13:32:50.862Z,7.49
2022-11-22T13:35:23.916Z,7.50
2022-11-22T13:37:54.423Z,7.49
2022-11-22T13:40:43.836Z,7.45
2022-11-22T13:43:21.959Z,7.42
2022-11-22T13:45:59.313Z,7.38
2022-11-22T13:48:41.031Z,7.32
2022-11-22T13:51:16.050Z,7.26
2022-11-22T13:53:44.434Z,7.19
2022-11-22T13:56:17.127Z,7.10
2022-11-22T13:58:54.128Z,7.02
2022-11-22T14:01:51.437Z,6.94
2022-11-22T14:04:17.835Z,6.76
2022-11-22T14:06:49.267Z,6.53
2022-11-22T14:09:17.337Z,6.33
2022-11-22T14:12:03.123Z,6.15
2022-11-22T14:14:47.864Z,5.95
2022-11-22T14:17:42.374Z,5.75
2022-11-22T14:20:27.260Z,5.54
2022-11-22T14:23:38.138Z,5.34
2022-11-22T14:26:44.855Z,5.14
2022-11-22T14:29:33.357Z,4.93
2022-11-22T14:32:13.749Z,4.74
2022-11-22T14:35:05.297Z,4.56
2022-11-22T14:37:31.829Z,4.37
2022-11-22T14:40:07.468Z,4.21
2022-11-22T14:42:36.766Z,4.06
2022-11-22T14:45:09.348Z,3.90
2022-11-22T14:47:41.934Z,3.75
2022-11-22T14:50:37.550Z,3.59
2022-11-22T14:53:44.025Z,3.41
2022-11-22T14:56:22.838Z,3.24
2022-11-22T14:59:02.908Z,3.09
2022-11-22T15:01:57.056Z,2.92
2022-11-22T15:09:11.957Z,2.75
2022-11-22T15:09:17.239Z,2.59
2022-11-22T15:10:58.151Z,2.43
2022-11-22T15:14:08.955Z,2.28
2022-11-22T15:59:43.074Z,0.20
2022-11-22T16:02:21.365Z,0.15
2022-11-22T16:06:06.046Z,0.09
2022-11-22T16:07:41.094Z,0.06
2022-11-22T16:10:24.504Z,0.05
2022-11-22T16:12:52.430Z,0.04
2022-11-22T16:15:30.094Z,0.01
2022-11-22T16:18:01.839Z,-0.04
2022-11-22T16:20:31.468Z,-0.07
2022-11-22T16:23:12.983Z,-0.11
2022-11-22T16:25:48.697Z,-0.18
2022-11-22T16:28:29.261Z,-0.23
2022-11-22T16:30:58.167Z,-0.23
2022-11-22T16:33:24.991Z,-0.23
2022-11-22T16:35:56.353Z,-0.23
2022-11-22T16:38:24.020Z,-0.23
2022-11-22T16:40:52.094Z,-0.29
2022-11-22T16:43:21.604Z,-0.36
2022-11-22T16:45:48.958Z,-0.44
2022-11-22T16:48:31.821Z,-0.52
2022-11-22T16:51:05.051Z,-0.58
2022-11-22T16:53:44.537Z,-0.64
2022-11-22T16:56:26.131Z,-0.70
2022-11-22T16:58:53.167Z,-0.75
2022-11-22T17:01:24.762Z,-0.83
2022-11-22T17:03:55.385Z,-0.87
2022-11-22T17:06:24.446Z,-0.91
2022-11-22T17:08:52.806Z,-0.94
2022-11-22T17:11:22.167Z,-0.98
2022-11-22T17:13:49.003Z,-1.00
2022-11-22T17:16:16.159Z,-1.03
2022-11-22T17:18:42.709Z,-1.02
2022-11-22T17:21:30.211Z,-1.03
2022-11-22T17:24:02.192Z,-1.04
2022-11-22T17:26:29.446Z,-1.05
2022-11-22T17:28:56.089Z,-1.07
2022-11-22T17:31:22.890Z,-1.07
2022-11-22T17:33:54.827Z,-1.09
2022-11-22T17:36:35.677Z,-1.09
2022-11-22T17:39:07.935Z,-1.10
2022-11-22T17:41:34.602Z,-1.11
2022-11-22T17:44:02.157Z,-1.12
2022-11-22T17:46:29.714Z,-1.14
2022-11-22T17:49:01.462Z,-1.16
2022-11-22T17:51:29.663Z,-1.20
2022-11-22T17:53:56.817Z,-1.26
2022-11-22T17:56:23.255Z,-1.29
2022-11-22T17:58:50.196Z,-1.27
2022-11-22T18:01:21.816Z,-1.27
2022-11-22T18:03:49.000Z,-1.31
2022-11-22T18:06:16.695Z,-1.35
2022-11-22T18:08:46.850Z,-1.38
2022-11-22T18:11:14.563Z,-1.40
2022-11-22T18:13:41.536Z,-1.41
2022-11-22T18:16:10.949Z,-1.42
2022-11-22T18:18:56.109Z,-1.44
2022-11-22T18:21:23.563Z,-1.42
2022-11-22T18:23:50.800Z,-1.41
2022-11-22T18:26:38.336Z,-1.44
2022-11-22T18:31:52.979Z,-1.50
2022-11-22T18:34:20.450Z,-1.53
2022-11-22T18:37:04.294Z,-1.53
2022-11-22T18:39:35.059Z,-1.57
2022-11-22T18:42:02.754Z,-1.60
2022-11-22T18:44:29.392Z,-1.61
2022-11-22T18:46:55.878Z,-1.61
2022-11-22T18:49:22.663Z,-1.57
2022-11-22T18:51:49.157Z,-1.56
2022-11-22T18:54:15.679Z,-1.57
2022-11-22T18:56:42.199Z,-1.55
2022-11-22T18:59:11.199Z,-1.55
2022-11-22T19:01:37.829Z,-1.56
2022-11-22T19:04:05.143Z,-1.57
2022-11-22T19:06:31.643Z,-1.59
2022-11-22T19:08:58.490Z,-1.61
2022-11-22T19:11:25.967Z,-1.64
2022-11-22T19:13:52.386Z,-1.66
2022-11-22T19:16:21.470Z,-1.67
2022-11-22T19:18:48.927Z,-1.69
2022-11-22T19:21:18.171Z,-1.70
2022-11-22T19:23:45.595Z,-1.71
2022-11-22T19:26:15.098Z,-1.70
2022-11-22T19:28:42.565Z,-1.65
2022-11-22T19:31:18.113Z,-1.65
2022-11-22T19:33:45.680Z,-1.66
2022-11-22T19:36:33.767Z,-1.67
2022-11-22T19:39:03.127Z,-1.69
2022-11-22T19:41:29.827Z,-1.72
2022-11-22T19:43:58.368Z,-1.75
2022-11-22T19:46:25.660Z,-1.76
2022-11-22T19:48:53.512Z,-1.77
2022-11-22T19:51:20.324Z,-1.80
2022-11-22T19:54:31.422Z,-1.81
2022-11-22T19:56:58.012Z,-1.78
2022-11-22T19:59:24.612Z,-1.78
2022-11-22T20:01:51.025Z,-1.82
2022-11-22T20:04:17.456Z,-1.84
2022-11-22T20:06:48.642Z,-1.85
2022-11-22T20:09:16.599Z,-1.82
2022-11-22T20:11:43.025Z,-1.79
2022-11-22T20:14:09.644Z,-1.80
2022-11-22T20:16:37.856Z,-1.84
2022-11-22T20:19:05.826Z,-1.88
2022-11-22T20:21:34.109Z,-1.93
2022-11-22T20:24:01.161Z,-1.95
2022-11-22T20:26:28.929Z,-1.95
2022-11-22T20:29:06.415Z,-1.97
2022-11-22T20:31:35.202Z,-1.95
2022-11-22T20:34:02.463Z,-1.97
2022-11-22T20:36:32.036Z,-2.01
2022-11-22T20:38:59.241Z,-2.02
2022-11-22T20:41:28.409Z,-2.02
2022-11-22T20:43:54.910Z,-2.03
2022-11-22T20:46:23.982Z,-2.01
2022-11-22T20:48:51.439Z,-1.99
2022-11-22T20:51:21.856Z,-2.00
2022-11-22T20:53:48.665Z,-2.00
2022-11-22T20:56:15.677Z,-2.03
2022-11-22T20:58:43.239Z,-2.07
2022-11-22T21:01:14.583Z,-2.12
2022-11-22T21:03:41.204Z,-2.14
2022-11-22T21:06:07.986Z,-2.11
2022-11-22T21:08:34.499Z,-2.13
2022-11-22T21:11:06.155Z,-2.11
2022-11-22T21:13:33.411Z,-2.11
2022-11-22T21:16:15.622Z,-2.14
2022-11-22T21:18:54.272Z,-2.14
2022-11-22T21:21:22.526Z,-2.14
2022-11-22T21:23:56.703Z,-2.15
2022-11-22T21:26:24.459Z,-2.14
2022-11-22T21:28:51.581Z,-2.15
2022-11-22T21:31:19.151Z,-2.14
2022-11-22T21:33:45.946Z,-2.16
2022-11-22T21:36:13.443Z,-2.17
2022-11-22T21:38:40.081Z,-2.18
2022-11-22T21:41:38.155Z,-2.21
2022-11-22T21:43:58.541Z,-2.21
2022-11-22T21:46:25.001Z,-2.21
2022-11-22T21:48:51.524Z,-2.23
2022-11-22T21:51:18.065Z,-2.25
2022-11-22T21:53:44.525Z,-2.26
2022-11-22T21:56:11.253Z,-2.26
2022-11-22T21:58:37.790Z,-2.28
2022-11-22T22:01:08.267Z,-2.27
2022-11-22T22:03:37.513Z,-2.27
2022-11-22T22:06:04.053Z,-2.29
2022-11-22T22:08:30.511Z,-2.30
2022-11-22T22:10:57.249Z,-2.32
2022-11-22T22:13:23.860Z,-2.35
2022-11-22T22:15:55.552Z,-2.37
2022-11-22T22:18:22.093Z,-2.36
2022-11-22T22:20:57.642Z,-2.37
2022-11-22T22:23:24.066Z,-2.37
2022-11-22T22:25:50.668Z,-2.38
2022-11-22T22:28:17.159Z,-2.37
2022-11-22T22:30:43.702Z,-2.38
2022-11-22T22:33:10.114Z,-2.40
2022-11-22T22:35:36.567Z,-2.40
2022-11-22T22:38:03.212Z,-2.38
2022-11-22T22:40:29.745Z,-2.36
2022-11-22T22:42:58.030Z,-2.36
2022-11-22T22:45:24.565Z,-2.34
2022-11-22T22:47:51.005Z,-2.33
2022-11-22T22:50:17.544Z,-2.32
2022-11-22T22:52:43.982Z,-2.26
2022-11-22T22:55:10.621Z,-2.19
2022-11-22T22:57:37.168Z,-2.15
2022-11-22T23:00:04.733Z,-2.15
2022-11-22T23:02:31.197Z,-2.14
2022-11-22T23:04:57.683Z,-2.13
2022-11-22T23:07:24.158Z,-2.09
2022-11-22T23:09:50.670Z,-2.04
2022-11-22T23:12:17.066Z,-1.99
2022-11-22T23:14:43.532Z,-1.92
2022-11-22T23:17:10.111Z,-1.86
2022-11-22T23:19:36.655Z,-1.79
2022-11-22T23:22:04.193Z,-1.71
2022-11-22T23:24:32.286Z,-1.65
2022-11-22T23:26:59.138Z,-1.62
2022-11-22T23:29:26.100Z,-1.59
2022-11-22T23:31:52.553Z,-1.58
2022-11-22T23:34:19.012Z,-1.58
2022-11-22T23:36:45.519Z,-1.58
2022-11-22T23:39:12.162Z,-1.60
2022-11-22T23:41:38.632Z,-1.60
2022-11-22T23:44:05.301Z,-1.63
2022-11-22T23:46:31.893Z,-1.65
2022-11-22T23:49:00.554Z,-1.67
2022-11-22T23:51:28.707Z,-1.70
2022-11-22T23:55:48.772Z,-1.86
2022-11-22T23:58:15.306Z,-1.92
